DAL1545 KLAX-KDEN
Flight info
| Callsign | DAL1545 |
|---|---|
| Flight time | 1h 43m |
| Altitude | 33000 |
| Route | ORCKA5 LAS J146 DICEE BUMMP SSKII4 |
| Aircraft | A21N/M-SDE2E3FGHIRWXY/LB1 |
Departure
| Time | 2026-05-04 03:59 |
|---|---|
| Airport | Los Angeles International Airport (KLAX) |
Arrival
| Time | 2026-05-04 05:43 |
|---|---|
| Airport | Denver International Airport (KDEN) |
| Time | Latitude | Longitude | Altitude | Speed | Heading |
|---|---|---|---|---|---|
| 2026-05-04 03:13 | 33.94606 | -118.40328 | 98 ft | 0 kts | 248° |
| 2026-05-04 03:43 | 33.94615 | -118.40304 | 99 ft | 4 kts | 243° |
| 2026-05-04 03:43 | 33.94628 | -118.40276 | 98 ft | 4 kts | 239° |
| 2026-05-04 03:43 | 33.94639 | -118.40249 | 98 ft | 4 kts | 272° |
| 2026-05-04 03:43 | 33.94645 | -118.40245 | 98 ft | 1 kts | 352° |
| 2026-05-04 03:44 | 33.94644 | -118.40245 | 98 ft | 4 kts | 352° |
| 2026-05-04 03:48 | 33.94650 | -118.40245 | 98 ft | 3 kts | 353° |
| 2026-05-04 03:48 | 33.94685 | -118.40251 | 99 ft | 7 kts | 353° |
| 2026-05-04 03:48 | 33.94706 | -118.40254 | 98 ft | 0 kts | 352° |
| 2026-05-04 03:51 | 33.94772 | -118.40265 | 98 ft | 12 kts | 353° |
| 2026-05-04 03:51 | 33.94843 | -118.40287 | 100 ft | 11 kts | 344° |
| 2026-05-04 03:52 | 33.94899 | -118.40233 | 101 ft | 13 kts | 71° |
| 2026-05-04 03:52 | 33.94911 | -118.40124 | 99 ft | 11 kts | 83° |
| 2026-05-04 03:52 | 33.94920 | -118.40038 | 99 ft | 11 kts | 83° |
| 2026-05-04 03:52 | 33.94931 | -118.39955 | 98 ft | 10 kts | 66° |
| 2026-05-04 03:53 | 33.94945 | -118.39932 | 98 ft | 0 kts | 39° |
| 2026-05-04 03:53 | 33.94968 | -118.39917 | 99 ft | 10 kts | 19° |
| 2026-05-04 03:54 | 33.95038 | -118.39925 | 99 ft | 11 kts | 308° |
| 2026-05-04 03:54 | 33.95039 | -118.40004 | 99 ft | 6 kts | 263° |
| 2026-05-04 03:54 | 33.95033 | -118.40042 | 99 ft | 0 kts | 262° |
| 2026-05-04 03:59 | 33.95020 | -118.40167 | 103 ft | 46 kts | 263° |
| 2026-05-04 03:59 | 33.94952 | -118.40848 | 103 ft | 116 kts | 263° |
| 2026-05-04 03:59 | 33.94826 | -118.42034 | 118 ft | 166 kts | 263° |
| 2026-05-04 03:59 | 33.94656 | -118.43381 | 761 ft | 161 kts | 261° |
| 2026-05-04 04:00 | 33.94516 | -118.44750 | 1429 ft | 163 kts | 266° |
| 2026-05-04 04:00 | 33.94399 | -118.46172 | 1845 ft | 183 kts | 264° |
| 2026-05-04 04:00 | 33.94242 | -118.47763 | 2314 ft | 199 kts | 264° |
| 2026-05-04 04:00 | 33.94070 | -118.49496 | 2709 ft | 221 kts | 263° |
| 2026-05-04 04:01 | 33.93886 | -118.51363 | 3387 ft | 226 kts | 263° |
| 2026-05-04 04:01 | 33.93697 | -118.53262 | 4111 ft | 231 kts | 263° |
| 2026-05-04 04:01 | 33.93506 | -118.55201 | 4834 ft | 235 kts | 263° |
| 2026-05-04 04:01 | 33.93316 | -118.57165 | 5554 ft | 237 kts | 263° |
| 2026-05-04 04:02 | 33.93123 | -118.59144 | 6260 ft | 240 kts | 263° |
| 2026-05-04 04:02 | 33.92928 | -118.61151 | 6932 ft | 243 kts | 263° |
| 2026-05-04 04:02 | 33.92734 | -118.63180 | 7604 ft | 245 kts | 263° |
| 2026-05-04 04:02 | 33.92559 | -118.65199 | 8268 ft | 247 kts | 263° |
| 2026-05-04 04:03 | 33.92395 | -118.67265 | 8952 ft | 249 kts | 263° |
| 2026-05-04 04:03 | 33.92133 | -118.69335 | 9620 ft | 250 kts | 249° |
| 2026-05-04 04:03 | 33.91204 | -118.71088 | 10216 ft | 252 kts | 223° |
| 2026-05-04 04:03 | 33.89728 | -118.72233 | 10808 ft | 255 kts | 206° |
| 2026-05-04 04:04 | 33.88008 | -118.72795 | 11397 ft | 260 kts | 186° |
| 2026-05-04 04:04 | 33.86200 | -118.72488 | 11990 ft | 269 kts | 163° |
| 2026-05-04 04:04 | 33.84598 | -118.71284 | 12562 ft | 279 kts | 139° |
| 2026-05-04 04:04 | 33.83497 | -118.69326 | 12935 ft | 290 kts | 114° |
| 2026-05-04 04:05 | 33.83172 | -118.66911 | 13030 ft | 299 kts | 88° |
| 2026-05-04 04:05 | 33.83749 | -118.64490 | 13140 ft | 305 kts | 65° |
| 2026-05-04 04:05 | 33.84787 | -118.62245 | 13669 ft | 309 kts | 61° |
| 2026-05-04 04:05 | 33.85860 | -118.60016 | 14124 ft | 316 kts | 62° |
| 2026-05-04 04:06 | 33.86964 | -118.57626 | 14410 ft | 330 kts | 63° |
| 2026-05-04 04:06 | 33.88074 | -118.55136 | 14648 ft | 346 kts | 63° |
| 2026-05-04 04:06 | 33.89219 | -118.52509 | 14875 ft | 362 kts | 63° |
| 2026-05-04 04:06 | 33.90423 | -118.49719 | 15128 ft | 378 kts | 63° |
| 2026-05-04 04:07 | 33.91650 | -118.46852 | 15376 ft | 392 kts | 63° |
| 2026-05-04 04:07 | 33.92940 | -118.43919 | 15855 ft | 399 kts | 59° |
| 2026-05-04 04:07 | 33.94473 | -118.41110 | 16378 ft | 404 kts | 55° |
| 2026-05-04 04:07 | 33.96086 | -118.38306 | 16888 ft | 410 kts | 54° |
| 2026-05-04 04:08 | 33.97724 | -118.35466 | 17364 ft | 416 kts | 54° |
| 2026-05-04 04:08 | 33.99353 | -118.32606 | 17847 ft | 423 kts | 54° |
| 2026-05-04 04:08 | 34.01026 | -118.29658 | 18335 ft | 429 kts | 54° |
| 2026-05-04 04:08 | 34.02716 | -118.26672 | 18757 ft | 433 kts | 54° |
| 2026-05-04 04:09 | 34.04424 | -118.23660 | 19270 ft | 436 kts | 54° |
| 2026-05-04 04:09 | 34.06135 | -118.20636 | 19776 ft | 438 kts | 54° |
| 2026-05-04 04:09 | 34.07857 | -118.17595 | 20230 ft | 441 kts | 54° |
| 2026-05-04 04:09 | 34.09593 | -118.14528 | 20669 ft | 444 kts | 54° |
| 2026-05-04 04:10 | 34.11341 | -118.11436 | 21084 ft | 448 kts | 54° |
| 2026-05-04 04:10 | 34.13103 | -118.08315 | 21516 ft | 452 kts | 54° |
| 2026-05-04 04:10 | 34.14874 | -118.05172 | 21939 ft | 454 kts | 54° |
| 2026-05-04 04:10 | 34.16657 | -118.02011 | 22374 ft | 457 kts | 54° |
| 2026-05-04 04:11 | 34.18455 | -117.98819 | 22801 ft | 461 kts | 54° |
| 2026-05-04 04:11 | 34.20260 | -117.95607 | 23244 ft | 464 kts | 54° |
| 2026-05-04 04:11 | 34.22081 | -117.92359 | 23643 ft | 467 kts | 54° |
| 2026-05-04 04:11 | 34.23910 | -117.89100 | 23989 ft | 470 kts | 54° |
| 2026-05-04 04:12 | 34.25751 | -117.85823 | 24313 ft | 474 kts | 54° |
| 2026-05-04 04:12 | 34.27608 | -117.82508 | 24638 ft | 477 kts | 54° |
| 2026-05-04 04:12 | 34.29473 | -117.79175 | 24977 ft | 481 kts | 54° |
| 2026-05-04 04:12 | 34.31346 | -117.75814 | 25321 ft | 483 kts | 54° |
| 2026-05-04 04:13 | 34.33234 | -117.72435 | 25641 ft | 485 kts | 54° |
| 2026-05-04 04:13 | 34.35148 | -117.69042 | 25923 ft | 489 kts | 52° |
| 2026-05-04 04:13 | 34.37140 | -117.65690 | 26208 ft | 493 kts | 51° |
| 2026-05-04 04:13 | 34.39130 | -117.62359 | 26499 ft | 496 kts | 51° |
| 2026-05-04 04:14 | 34.41184 | -117.58915 | 26766 ft | 499 kts | 51° |
| 2026-05-04 04:14 | 34.43227 | -117.55493 | 27054 ft | 503 kts | 51° |
| 2026-05-04 04:14 | 34.45247 | -117.52099 | 27388 ft | 504 kts | 52° |
| 2026-05-04 04:14 | 34.47326 | -117.48594 | 27793 ft | 506 kts | 51° |
| 2026-05-04 04:15 | 34.49357 | -117.45174 | 28104 ft | 508 kts | 51° |
| 2026-05-04 04:15 | 34.51427 | -117.41683 | 28446 ft | 510 kts | 51° |
| 2026-05-04 04:15 | 34.53502 | -117.38189 | 28732 ft | 512 kts | 51° |
| 2026-05-04 04:15 | 34.55585 | -117.34678 | 28991 ft | 514 kts | 51° |
| 2026-05-04 04:16 | 34.57679 | -117.31146 | 29258 ft | 517 kts | 51° |
| 2026-05-04 04:16 | 34.59787 | -117.27588 | 29531 ft | 520 kts | 51° |
| 2026-05-04 04:16 | 34.61893 | -117.24017 | 29768 ft | 522 kts | 51° |
| 2026-05-04 04:16 | 34.64016 | -117.20419 | 29998 ft | 525 kts | 51° |
| 2026-05-04 04:17 | 34.68288 | -117.13174 | 30289 ft | 530 kts | 51° |
| 2026-05-04 04:17 | 34.70438 | -117.09521 | 30445 ft | 533 kts | 51° |
| 2026-05-04 04:17 | 34.72604 | -117.05849 | 30617 ft | 536 kts | 51° |
| 2026-05-04 04:18 | 34.74780 | -117.02154 | 30754 ft | 540 kts | 51° |
| 2026-05-04 04:18 | 34.76968 | -116.98425 | 30816 ft | 542 kts | 51° |
| 2026-05-04 04:18 | 34.81355 | -116.90926 | 31125 ft | 544 kts | 51° |
| 2026-05-04 04:19 | 34.83553 | -116.87174 | 31408 ft | 545 kts | 51° |
| 2026-05-04 04:19 | 34.85753 | -116.83422 | 31684 ft | 544 kts | 51° |
| 2026-05-04 04:19 | 34.87953 | -116.79659 | 31837 ft | 546 kts | 51° |
| 2026-05-04 04:19 | 34.90125 | -116.75936 | 31997 ft | 548 kts | 51° |
| 2026-05-04 04:20 | 34.92400 | -116.72224 | 32150 ft | 546 kts | 44° |
| 2026-05-04 04:20 | 34.94947 | -116.68794 | 32308 ft | 545 kts | 41° |
| 2026-05-04 04:20 | 34.97542 | -116.65405 | 32478 ft | 547 kts | 41° |
| 2026-05-04 04:20 | 35.00142 | -116.62018 | 32646 ft | 548 kts | 41° |
| 2026-05-04 04:21 | 35.02744 | -116.58610 | 32802 ft | 549 kts | 41° |
| 2026-05-04 04:21 | 35.05341 | -116.55186 | 32852 ft | 550 kts | 41° |
| 2026-05-04 04:21 | 35.10588 | -116.48256 | 32807 ft | 559 kts | 41° |
| 2026-05-04 04:22 | 35.15869 | -116.41259 | 32831 ft | 560 kts | 41° |
| 2026-05-04 04:22 | 35.21128 | -116.34285 | 32828 ft | 555 kts | 41° |
| 2026-05-04 04:23 | 35.26310 | -116.27391 | 32794 ft | 554 kts | 41° |
| 2026-05-04 04:23 | 35.31513 | -116.20465 | 32768 ft | 549 kts | 41° |
| 2026-05-04 04:24 | 35.36675 | -116.13574 | 32775 ft | 550 kts | 41° |
| 2026-05-04 04:24 | 35.41847 | -116.06657 | 32789 ft | 550 kts | 41° |
| 2026-05-04 04:25 | 35.47013 | -115.99736 | 32806 ft | 550 kts | 41° |
| 2026-05-04 04:25 | 35.52165 | -115.92815 | 32806 ft | 547 kts | 41° |
| 2026-05-04 04:26 | 35.56983 | -115.85597 | 32794 ft | 550 kts | 50° |
| 2026-05-04 04:26 | 35.59274 | -115.81861 | 32949 ft | 545 kts | 43° |
| 2026-05-04 04:26 | 35.61941 | -115.78602 | 32931 ft | 538 kts | 35° |
| 2026-05-04 04:27 | 35.67357 | -115.72215 | 32844 ft | 543 kts | 40° |
| 2026-05-04 04:27 | 35.72465 | -115.65276 | 32822 ft | 549 kts | 43° |
| 2026-05-04 04:28 | 35.77483 | -115.58292 | 32821 ft | 547 kts | 42° |
| 2026-05-04 04:28 | 35.82545 | -115.51297 | 32839 ft | 547 kts | 43° |
| 2026-05-04 04:29 | 35.87578 | -115.44332 | 32811 ft | 542 kts | 43° |
| 2026-05-04 04:29 | 35.92588 | -115.37381 | 32799 ft | 542 kts | 43° |
| 2026-05-04 04:30 | 35.97593 | -115.30430 | 32831 ft | 541 kts | 43° |
| 2026-05-04 04:30 | 36.02576 | -115.23491 | 32794 ft | 540 kts | 43° |
| 2026-05-04 04:31 | 36.07362 | -115.16312 | 32785 ft | 546 kts | 53° |
| 2026-05-04 04:31 | 36.09168 | -115.12144 | 32797 ft | 551 kts | 64° |
| 2026-05-04 04:31 | 36.10585 | -115.07728 | 32799 ft | 552 kts | 68° |
| 2026-05-04 04:32 | 36.13269 | -114.98822 | 32710 ft | 554 kts | 68° |
| 2026-05-04 04:32 | 36.16003 | -114.89875 | 32701 ft | 556 kts | 68° |
| 2026-05-04 04:33 | 36.18748 | -114.80920 | 32690 ft | 556 kts | 67° |
| 2026-05-04 04:33 | 36.21497 | -114.71968 | 32663 ft | 556 kts | 68° |
| 2026-05-04 04:34 | 36.24218 | -114.63058 | 32628 ft | 557 kts | 68° |
| 2026-05-04 04:34 | 36.26950 | -114.54079 | 32617 ft | 557 kts | 68° |
| 2026-05-04 04:35 | 36.29679 | -114.45098 | 32627 ft | 555 kts | 68° |
| 2026-05-04 04:35 | 36.32389 | -114.36127 | 32640 ft | 555 kts | 68° |
| 2026-05-04 04:36 | 36.35094 | -114.27166 | 32632 ft | 554 kts | 68° |
| 2026-05-04 04:36 | 36.37778 | -114.18258 | 32642 ft | 554 kts | 68° |
| 2026-05-04 04:37 | 36.43143 | -114.00328 | 32690 ft | 553 kts | 68° |
| 2026-05-04 04:38 | 36.45360 | -113.92879 | 32689 ft | 553 kts | 68° |
| 2026-05-04 04:38 | 36.48020 | -113.83919 | 32714 ft | 553 kts | 68° |
| 2026-05-04 04:39 | 36.50682 | -113.74942 | 32729 ft | 553 kts | 68° |
| 2026-05-04 04:39 | 36.53326 | -113.65989 | 32737 ft | 551 kts | 68° |
| 2026-05-04 04:40 | 36.55952 | -113.57037 | 32764 ft | 551 kts | 68° |
| 2026-05-04 04:40 | 36.58567 | -113.48127 | 32781 ft | 551 kts | 69° |
| 2026-05-04 04:41 | 36.61190 | -113.39156 | 32776 ft | 550 kts | 68° |
| 2026-05-04 04:41 | 36.63800 | -113.30215 | 32794 ft | 550 kts | 68° |
| 2026-05-04 04:42 | 36.66389 | -113.21259 | 32826 ft | 550 kts | 69° |
| 2026-05-04 04:42 | 36.68980 | -113.12290 | 32867 ft | 550 kts | 69° |
| 2026-05-04 04:43 | 36.71560 | -113.03321 | 32900 ft | 549 kts | 68° |
| 2026-05-04 04:43 | 36.74124 | -112.94411 | 32918 ft | 549 kts | 68° |
| 2026-05-04 04:44 | 36.76696 | -112.85447 | 32916 ft | 549 kts | 68° |
| 2026-05-04 04:44 | 36.79258 | -112.76468 | 32902 ft | 549 kts | 69° |
| 2026-05-04 04:45 | 36.81806 | -112.67515 | 32874 ft | 546 kts | 69° |
| 2026-05-04 04:47 | 36.90629 | -112.36230 | 32855 ft | 542 kts | 69° |
| 2026-05-04 04:47 | 36.93119 | -112.27329 | 32864 ft | 543 kts | 69° |
| 2026-05-04 04:48 | 36.95611 | -112.18430 | 32860 ft | 542 kts | 69° |
| 2026-05-04 04:49 | 37.01771 | -111.96267 | 32848 ft | 540 kts | 69° |
| 2026-05-04 04:49 | 37.04230 | -111.87380 | 32842 ft | 540 kts | 69° |
| 2026-05-04 04:50 | 37.06680 | -111.78475 | 32826 ft | 541 kts | 69° |
| 2026-05-04 04:50 | 37.09127 | -111.69547 | 32822 ft | 542 kts | 69° |
| 2026-05-04 04:51 | 37.11571 | -111.60630 | 32825 ft | 542 kts | 69° |
| 2026-05-04 04:51 | 37.14007 | -111.51696 | 32897 ft | 541 kts | 69° |
| 2026-05-04 04:52 | 37.16431 | -111.42762 | 32896 ft | 542 kts | 69° |
| 2026-05-04 04:52 | 37.18846 | -111.33828 | 32870 ft | 542 kts | 69° |
| 2026-05-04 04:53 | 37.21254 | -111.24926 | 32840 ft | 542 kts | 69° |
| 2026-05-04 04:53 | 37.24339 | -111.16330 | 32818 ft | 540 kts | 60° |
| 2026-05-04 04:54 | 37.27713 | -111.07902 | 32813 ft | 538 kts | 60° |
| 2026-05-04 04:54 | 37.31060 | -110.99483 | 32819 ft | 539 kts | 60° |
| 2026-05-04 04:55 | 37.34407 | -110.91044 | 32818 ft | 539 kts | 60° |
| 2026-05-04 04:55 | 37.37741 | -110.82606 | 32821 ft | 539 kts | 60° |
| 2026-05-04 04:56 | 37.41067 | -110.74164 | 32821 ft | 538 kts | 60° |
| 2026-05-04 04:56 | 37.44390 | -110.65720 | 32825 ft | 538 kts | 60° |
| 2026-05-04 04:57 | 37.47680 | -110.57331 | 32828 ft | 538 kts | 60° |
| 2026-05-04 04:57 | 37.50982 | -110.48882 | 32829 ft | 538 kts | 60° |
| 2026-05-04 04:58 | 37.54274 | -110.40414 | 32846 ft | 539 kts | 60° |
| 2026-05-04 04:58 | 37.57583 | -110.31928 | 32852 ft | 539 kts | 61° |
| 2026-05-04 04:59 | 37.60884 | -110.23418 | 32852 ft | 541 kts | 61° |
| 2026-05-04 04:59 | 37.64179 | -110.14880 | 32864 ft | 540 kts | 61° |
| 2026-05-04 05:00 | 37.67457 | -110.06378 | 32886 ft | 539 kts | 61° |
| 2026-05-04 05:01 | 37.72334 | -109.93662 | 32884 ft | 538 kts | 61° |
| 2026-05-04 05:01 | 37.75585 | -109.85172 | 32889 ft | 536 kts | 61° |
| 2026-05-04 05:02 | 37.78839 | -109.76667 | 32897 ft | 535 kts | 61° |
| 2026-05-04 05:02 | 37.82055 | -109.68192 | 32929 ft | 535 kts | 61° |
| 2026-05-04 05:03 | 37.85274 | -109.59723 | 32928 ft | 534 kts | 61° |
| 2026-05-04 05:04 | 37.91700 | -109.42735 | 32904 ft | 535 kts | 61° |
| 2026-05-04 05:04 | 37.94910 | -109.34230 | 32884 ft | 535 kts | 62° |
| 2026-05-04 05:06 | 38.07639 | -109.00196 | 32865 ft | 532 kts | 62° |
| 2026-05-04 05:07 | 38.10854 | -108.91727 | 32866 ft | 532 kts | 60° |
| 2026-05-04 05:07 | 38.14169 | -108.83319 | 32852 ft | 533 kts | 60° |
| 2026-05-04 05:09 | 38.28947 | -108.45532 | 32864 ft | 530 kts | 61° |
| 2026-05-04 05:10 | 38.32211 | -108.37117 | 32871 ft | 530 kts | 61° |
| 2026-05-04 05:10 | 38.35448 | -108.28751 | 32884 ft | 531 kts | 61° |
| 2026-05-04 05:11 | 38.38708 | -108.20304 | 32910 ft | 532 kts | 61° |
| 2026-05-04 05:11 | 38.41969 | -108.11827 | 32962 ft | 532 kts | 61° |
| 2026-05-04 05:12 | 38.45220 | -108.03356 | 33006 ft | 531 kts | 61° |
| 2026-05-04 05:12 | 38.48448 | -107.94867 | 33028 ft | 532 kts | 62° |
| 2026-05-04 05:13 | 38.51669 | -107.86330 | 33032 ft | 532 kts | 62° |
| 2026-05-04 05:13 | 38.54877 | -107.77807 | 32860 ft | 532 kts | 62° |
| 2026-05-04 05:14 | 38.58040 | -107.69329 | 32843 ft | 530 kts | 62° |
| 2026-05-04 05:14 | 38.61230 | -107.60822 | 32844 ft | 531 kts | 61° |
| 2026-05-04 05:15 | 38.64425 | -107.52301 | 32873 ft | 531 kts | 61° |
| 2026-05-04 05:15 | 38.67606 | -107.43756 | 32891 ft | 531 kts | 61° |
| 2026-05-04 05:16 | 38.70795 | -107.35324 | 32899 ft | 528 kts | 60° |
| 2026-05-04 05:16 | 38.73967 | -107.26946 | 32908 ft | 516 kts | 60° |
| 2026-05-04 05:17 | 38.77083 | -107.18710 | 32927 ft | 517 kts | 60° |
| 2026-05-04 05:17 | 38.80238 | -107.10367 | 32923 ft | 520 kts | 61° |
| 2026-05-04 05:18 | 38.83369 | -107.02007 | 32942 ft | 518 kts | 61° |
| 2026-05-04 05:18 | 38.86449 | -106.93685 | 32945 ft | 515 kts | 61° |
| 2026-05-04 05:19 | 38.89547 | -106.85394 | 32971 ft | 515 kts | 60° |
| 2026-05-04 05:19 | 38.92604 | -106.77149 | 32983 ft | 514 kts | 61° |
| 2026-05-04 05:20 | 38.95681 | -106.68847 | 32989 ft | 514 kts | 61° |
| 2026-05-04 05:20 | 38.98722 | -106.60579 | 32995 ft | 509 kts | 61° |
| 2026-05-04 05:21 | 39.01731 | -106.52381 | 33060 ft | 505 kts | 61° |
| 2026-05-04 05:21 | 39.04714 | -106.44241 | 33119 ft | 502 kts | 61° |
| 2026-05-04 05:22 | 39.07704 | -106.36047 | 33174 ft | 510 kts | 61° |
| 2026-05-04 05:22 | 39.10704 | -106.27780 | 33228 ft | 507 kts | 62° |
| 2026-05-04 05:23 | 39.13689 | -106.19571 | 33197 ft | 505 kts | 62° |
| 2026-05-04 05:23 | 39.16646 | -106.11422 | 33143 ft | 506 kts | 62° |
| 2026-05-04 05:24 | 39.19599 | -106.03223 | 32670 ft | 501 kts | 62° |
| 2026-05-04 05:24 | 39.21069 | -105.99132 | 31478 ft | 504 kts | 62° |
| 2026-05-04 05:24 | 39.22541 | -105.95024 | 30450 ft | 503 kts | 63° |
| 2026-05-04 05:25 | 39.23998 | -105.90946 | 29560 ft | 496 kts | 63° |
| 2026-05-04 05:25 | 39.25442 | -105.86934 | 28728 ft | 489 kts | 62° |
| 2026-05-04 05:25 | 39.26864 | -105.82981 | 27872 ft | 483 kts | 63° |
| 2026-05-04 05:25 | 39.28269 | -105.79083 | 27095 ft | 476 kts | 63° |
| 2026-05-04 05:26 | 39.29657 | -105.75229 | 26329 ft | 469 kts | 63° |
| 2026-05-04 05:26 | 39.31021 | -105.71431 | 25561 ft | 463 kts | 63° |
| 2026-05-04 05:26 | 39.32363 | -105.67683 | 24864 ft | 456 kts | 63° |
| 2026-05-04 05:26 | 39.33687 | -105.64011 | 24425 ft | 443 kts | 63° |
| 2026-05-04 05:27 | 39.34967 | -105.60510 | 24021 ft | 429 kts | 62° |
| 2026-05-04 05:28 | 39.43728 | -105.38235 | 20245 ft | 362 kts | 52° |
| 2026-05-04 05:29 | 39.45194 | -105.35586 | 19603 ft | 361 kts | 52° |
| 2026-05-04 05:29 | 39.46157 | -105.33841 | 19305 ft | 356 kts | 52° |
| 2026-05-04 05:29 | 39.48040 | -105.30401 | 18556 ft | 352 kts | 52° |
| 2026-05-04 05:29 | 39.49448 | -105.27817 | 18033 ft | 350 kts | 52° |
| 2026-05-04 05:31 | 39.58292 | -105.11467 | 15648 ft | 306 kts | 52° |
| 2026-05-04 05:31 | 39.59534 | -105.09164 | 15413 ft | 316 kts | 52° |
| 2026-05-04 05:32 | 39.60793 | -105.06829 | 15163 ft | 315 kts | 52° |
| 2026-05-04 05:32 | 39.62046 | -105.04498 | 14926 ft | 314 kts | 52° |
| 2026-05-04 05:32 | 39.63293 | -105.02177 | 14694 ft | 313 kts | 52° |
| 2026-05-04 05:33 | 39.65766 | -104.97572 | 14314 ft | 310 kts | 52° |
| 2026-05-04 05:33 | 39.66994 | -104.95279 | 14079 ft | 308 kts | 52° |
| 2026-05-04 05:33 | 39.68218 | -104.92995 | 13852 ft | 307 kts | 52° |
| 2026-05-04 05:33 | 39.69436 | -104.90718 | 13445 ft | 306 kts | 51° |
| 2026-05-04 05:34 | 39.70653 | -104.88447 | 13182 ft | 305 kts | 52° |
| 2026-05-04 05:34 | 39.71885 | -104.86213 | 12923 ft | 303 kts | 46° |
| 2026-05-04 05:34 | 39.73477 | -104.84527 | 12807 ft | 293 kts | 21° |
| 2026-05-04 05:34 | 39.75413 | -104.83921 | 12496 ft | 283 kts | 359° |
| 2026-05-04 05:35 | 39.77375 | -104.83919 | 12080 ft | 282 kts | 355° |
| 2026-05-04 05:35 | 39.79333 | -104.83966 | 11694 ft | 281 kts | 356° |
| 2026-05-04 05:35 | 39.81258 | -104.83990 | 11382 ft | 280 kts | 356° |
| 2026-05-04 05:35 | 39.83203 | -104.83996 | 11250 ft | 278 kts | 356° |
| 2026-05-04 05:36 | 39.85104 | -104.83990 | 11025 ft | 268 kts | 357° |
| 2026-05-04 05:36 | 39.86935 | -104.83974 | 10951 ft | 261 kts | 357° |
| 2026-05-04 05:36 | 39.88730 | -104.83956 | 10940 ft | 250 kts | 357° |
| 2026-05-04 05:36 | 39.90430 | -104.83937 | 10940 ft | 242 kts | 356° |
| 2026-05-04 05:37 | 39.92113 | -104.83921 | 10956 ft | 240 kts | 356° |
| 2026-05-04 05:37 | 39.93764 | -104.83907 | 10608 ft | 237 kts | 356° |
| 2026-05-04 05:37 | 39.95410 | -104.83893 | 10159 ft | 236 kts | 357° |
| 2026-05-04 05:38 | 39.98701 | -104.83862 | 9219 ft | 236 kts | 358° |
| 2026-05-04 05:38 | 40.00287 | -104.83445 | 8851 ft | 230 kts | 24° |
| 2026-05-04 05:38 | 40.01424 | -104.82084 | 8683 ft | 220 kts | 56° |
| 2026-05-04 05:38 | 40.01936 | -104.80231 | 8339 ft | 217 kts | 74° |
| 2026-05-04 05:39 | 40.02271 | -104.78308 | 8009 ft | 219 kts | 76° |
| 2026-05-04 05:39 | 40.02437 | -104.74408 | 7628 ft | 221 kts | 111° |
| 2026-05-04 05:39 | 40.01735 | -104.72637 | 7549 ft | 220 kts | 124° |
| 2026-05-04 05:40 | 39.99472 | -104.70112 | 7254 ft | 211 kts | 156° |
| 2026-05-04 05:40 | 39.98149 | -104.69553 | 7058 ft | 189 kts | 175° |
| 2026-05-04 05:40 | 39.96884 | -104.69476 | 6841 ft | 178 kts | 188° |
| 2026-05-04 05:41 | 39.95662 | -104.69524 | 6625 ft | 173 kts | 185° |
| 2026-05-04 05:41 | 39.94526 | -104.69545 | 6437 ft | 157 kts | 186° |
| 2026-05-04 05:41 | 39.93442 | -104.69559 | 6217 ft | 158 kts | 184° |
| 2026-05-04 05:41 | 39.92335 | -104.69572 | 5990 ft | 159 kts | 183° |
| 2026-05-04 05:42 | 39.91242 | -104.69585 | 5752 ft | 156 kts | 183° |
| 2026-05-04 05:42 | 39.90154 | -104.69589 | 5534 ft | 156 kts | 183° |
| 2026-05-04 05:42 | 39.89094 | -104.69618 | 5369 ft | 146 kts | 182° |
| 2026-05-04 05:42 | 39.88286 | -104.69623 | 5374 ft | 80 kts | 184° |
| 2026-05-04 05:43 | 39.87821 | -104.69603 | 5368 ft | 32 kts | 171° |
| 2026-05-04 05:43 | 39.87644 | -104.69515 | 5371 ft | 28 kts | 150° |
| 2026-05-04 05:43 | 39.87524 | -104.69444 | 5370 ft | 19 kts | 159° |
| 2026-05-04 05:45 | 39.86422 | -104.69349 | 5368 ft | 27 kts | 149° |
| 2026-05-04 05:45 | 39.86252 | -104.69225 | 5368 ft | 29 kts | 150° |
| 2026-05-04 05:47 | 39.85806 | -104.68509 | 5369 ft | 17 kts | 179° |
| 2026-05-04 05:47 | 39.85682 | -104.68510 | 5368 ft | 18 kts | 180° |
| 2026-05-04 05:47 | 39.85549 | -104.68513 | 5369 ft | 20 kts | 181° |
| 2026-05-04 05:48 | 39.85471 | -104.68514 | 5367 ft | 10 kts | 180° |
| 2026-05-04 05:48 | 39.85393 | -104.68515 | 5370 ft | 12 kts | 180° |
| 2026-05-04 05:48 | 39.85317 | -104.68472 | 5371 ft | 14 kts | 107° |
| 2026-05-04 05:48 | 39.85384 | -104.68403 | 5370 ft | 16 kts | 2° |
| 2026-05-04 05:49 | 39.85497 | -104.68398 | 5370 ft | 17 kts | 358° |
| 2026-05-04 05:49 | 39.85589 | -104.68361 | 5371 ft | 14 kts | 70° |
| 2026-05-04 05:49 | 39.85596 | -104.68232 | 5371 ft | 15 kts | 93° |
| 2026-05-04 05:49 | 39.85596 | -104.68088 | 5371 ft | 17 kts | 90° |
| 2026-05-04 05:51 | 39.85520 | -104.67234 | 5368 ft | 15 kts | 90° |
| 2026-05-04 05:51 | 39.85520 | -104.67135 | 5369 ft | 11 kts | 92° |
| 2026-05-04 05:52 | 39.85518 | -104.67036 | 5370 ft | 3 kts | 90° |
| 2026-05-04 05:52 | 39.85518 | -104.67035 | 5371 ft | 0 kts | 89° |
| 2026-05-04 05:52 | 39.85514 | -104.66994 | 5370 ft | 8 kts | 118° |
| 2026-05-04 05:52 | 39.85507 | -104.66988 | 5371 ft | 0 kts | 163° |
| 2026-05-04 05:53 | 39.85498 | -104.66992 | 5370 ft | 1 kts | 206° |
| 2026-05-04 05:54 | 39.85450 | -104.67021 | 5371 ft | 0 kts | 207° |